sensor_id;sensor_type;location;lat;lon;timestamp;pressure;altitude;pressure_sealevel;temperature
24201;BMP280;2801;50.972;7.856;2023-01-16T00:00:12;95870.81;;;4.78
24201;BMP280;2801;50.972;7.856;2023-01-16T00:02:39;95875.94;;;4.83
24201;BMP280;2801;50.972;7.856;2023-01-16T00:05:06;95874.50;;;4.85
24201;BMP280;2801;50.972;7.856;2023-01-16T00:07:33;95863.41;;;4.83
24201;BMP280;2801;50.972;7.856;2023-01-16T00:10:00;95858.25;;;4.87
24201;BMP280;2801;50.972;7.856;2023-01-16T00:12:27;95855.47;;;4.83
24201;BMP280;2801;50.972;7.856;2023-01-16T00:14:53;95848.47;;;4.79
24201;BMP280;2801;50.972;7.856;2023-01-16T00:17:20;95835.75;;;4.84
24201;BMP280;2801;50.972;7.856;2023-01-16T00:19:47;95825.81;;;4.81
24201;BMP280;2801;50.972;7.856;2023-01-16T00:22:14;95822.13;;;4.74
24201;BMP280;2801;50.972;7.856;2023-01-16T00:24:40;95809.75;;;4.78
24201;BMP280;2801;50.972;7.856;2023-01-16T00:27:07;95805.56;;;4.77
24201;BMP280;2801;50.972;7.856;2023-01-16T00:29:34;95820.06;;;4.79
24201;BMP280;2801;50.972;7.856;2023-01-16T00:32:01;95812.09;;;4.79
24201;BMP280;2801;50.972;7.856;2023-01-16T00:34:28;95801.47;;;4.79
24201;BMP280;2801;50.972;7.856;2023-01-16T00:36:55;95799.94;;;4.78
24201;BMP280;2801;50.972;7.856;2023-01-16T00:39:21;95793.50;;;4.79
24201;BMP280;2801;50.972;7.856;2023-01-16T00:41:48;95788.19;;;4.79
24201;BMP280;2801;50.972;7.856;2023-01-16T00:44:15;95787.56;;;4.82
24201;BMP280;2801;50.972;7.856;2023-01-16T00:46:42;95792.88;;;4.82
24201;BMP280;2801;50.972;7.856;2023-01-16T00:49:09;95778.22;;;4.76
24201;BMP280;2801;50.972;7.856;2023-01-16T00:51:36;95782.25;;;4.82
24201;BMP280;2801;50.972;7.856;2023-01-16T00:54:03;95772.41;;;4.83
24201;BMP280;2801;50.972;7.856;2023-01-16T00:56:30;95775.81;;;4.83
24201;BMP280;2801;50.972;7.856;2023-01-16T00:58:57;95766.44;;;4.86
24201;BMP280;2801;50.972;7.856;2023-01-16T01:01:23;95761.66;;;4.79
24201;BMP280;2801;50.972;7.856;2023-01-16T01:03:50;95761.44;;;4.84
24201;BMP280;2801;50.972;7.856;2023-01-16T01:06:17;95759.47;;;4.81
24201;BMP280;2801;50.972;7.856;2023-01-16T01:08:44;95750.59;;;4.77
24201;BMP280;2801;50.972;7.856;2023-01-16T01:11:13;95755.56;;;4.79
24201;BMP280;2801;50.972;7.856;2023-01-16T01:13:42;95750.72;;;4.81
24201;BMP280;2801;50.972;7.856;2023-01-16T01:16:10;95748.53;;;4.83
24201;BMP280;2801;50.972;7.856;2023-01-16T01:18:38;95747.75;;;4.82
24201;BMP280;2801;50.972;7.856;2023-01-16T01:21:05;95740.31;;;4.76
24201;BMP280;2801;50.972;7.856;2023-01-16T01:23:33;95732.13;;;4.81
24201;BMP280;2801;50.972;7.856;2023-01-16T01:26:15;95729.94;;;4.83
24201;BMP280;2801;50.972;7.856;2023-01-16T01:28:43;95726.28;;;4.87
24201;BMP280;2801;50.972;7.856;2023-01-16T01:31:12;95708.50;;;4.88
24201;BMP280;2801;50.972;7.856;2023-01-16T01:33:39;95701.75;;;4.90
24201;BMP280;2801;50.972;7.856;2023-01-16T01:36:07;95697.31;;;4.94
24201;BMP280;2801;50.972;7.856;2023-01-16T01:38:34;95698.88;;;4.95
24201;BMP280;2801;50.972;7.856;2023-01-16T01:41:02;95689.69;;;4.93
24201;BMP280;2801;50.972;7.856;2023-01-16T01:43:47;95684.50;;;4.96
24201;BMP280;2801;50.972;7.856;2023-01-16T01:46:28;95668.91;;;4.95
24201;BMP280;2801;50.972;7.856;2023-01-16T01:49:27;95664.56;;;4.90
24201;BMP280;2801;50.972;7.856;2023-01-16T01:52:00;95656.16;;;4.88
24201;BMP280;2801;50.972;7.856;2023-01-16T01:54:44;95659.59;;;4.89
24201;BMP280;2801;50.972;7.856;2023-01-16T01:57:32;95652.75;;;4.88
24201;BMP280;2801;50.972;7.856;2023-01-16T02:00:09;95649.84;;;4.81
24201;BMP280;2801;50.972;7.856;2023-01-16T02:02:44;95646.63;;;4.75
24201;BMP280;2801;50.972;7.856;2023-01-16T02:05:16;95637.00;;;4.71
24201;BMP280;2801;50.972;7.856;2023-01-16T02:07:46;95638.09;;;4.58
24201;BMP280;2801;50.972;7.856;2023-01-16T02:10:30;95642.16;;;4.43
24201;BMP280;2801;50.972;7.856;2023-01-16T02:13:00;95621.56;;;4.40
24201;BMP280;2801;50.972;7.856;2023-01-16T02:15:29;95612.47;;;4.29
24201;BMP280;2801;50.972;7.856;2023-01-16T02:17:56;95620.50;;;4.21
24201;BMP280;2801;50.972;7.856;2023-01-16T02:21:15;95608.47;;;4.23
24201;BMP280;2801;50.972;7.856;2023-01-16T02:30:14;95597.75;;;4.20
24201;BMP280;2801;50.972;7.856;2023-01-16T02:32:59;95592.56;;;4.23
24201;BMP280;2801;50.972;7.856;2023-01-16T02:38:41;95577.22;;;4.29
24201;BMP280;2801;50.972;7.856;2023-01-16T02:41:54;95574.25;;;4.30
24201;BMP280;2801;50.972;7.856;2023-01-16T02:50:20;95554.81;;;4.38
24201;BMP280;2801;50.972;7.856;2023-01-16T02:53:00;95542.75;;;4.41
24201;BMP280;2801;50.972;7.856;2023-01-16T02:55:42;95540.66;;;4.46
24201;BMP280;2801;50.972;7.856;2023-01-16T02:58:12;95524.97;;;4.41
24201;BMP280;2801;50.972;7.856;2023-01-16T03:00:56;95528.97;;;4.47
24201;BMP280;2801;50.972;7.856;2023-01-16T03:03:37;95519.03;;;4.44
24201;BMP280;2801;50.972;7.856;2023-01-16T03:14:47;95494.16;;;4.49
24201;BMP280;2801;50.972;7.856;2023-01-16T03:25:35;95486.41;;;4.44
24201;BMP280;2801;50.972;7.856;2023-01-16T03:28:36;95483.00;;;4.43
24201;BMP280;2801;50.972;7.856;2023-01-16T03:31:29;95480.78;;;4.45
24201;BMP280;2801;50.972;7.856;2023-01-16T03:37:03;95475.91;;;4.47
24201;BMP280;2801;50.972;7.856;2023-01-16T03:39:43;95481.31;;;4.51
24201;BMP280;2801;50.972;7.856;2023-01-16T03:42:33;95465.09;;;4.52
24201;BMP280;2801;50.972;7.856;2023-01-16T03:45:19;95448.94;;;4.57
24201;BMP280;2801;50.972;7.856;2023-01-16T03:48:01;95449.25;;;4.56
24201;BMP280;2801;50.972;7.856;2023-01-16T03:50:31;95444.75;;;4.56
24201;BMP280;2801;50.972;7.856;2023-01-16T03:53:10;95430.38;;;4.45
24201;BMP280;2801;50.972;7.856;2023-01-16T03:55:50;95431.91;;;4.46
24201;BMP280;2801;50.972;7.856;2023-01-16T03:58:28;95417.91;;;4.46
24201;BMP280;2801;50.972;7.856;2023-01-16T04:04:05;95407.28;;;4.34
24201;BMP280;2801;50.972;7.856;2023-01-16T04:06:56;95399.53;;;4.29
24201;BMP280;2801;50.972;7.856;2023-01-16T04:09:38;95404.53;;;4.30
24201;BMP280;2801;50.972;7.856;2023-01-16T04:12:07;95393.03;;;4.26
24201;BMP280;2801;50.972;7.856;2023-01-16T04:14:36;95388.38;;;4.23
24201;BMP280;2801;50.972;7.856;2023-01-16T04:17:04;95388.72;;;4.22
24201;BMP280;2801;50.972;7.856;2023-01-16T04:19:33;95381.44;;;4.19
24201;BMP280;2801;50.972;7.856;2023-01-16T04:22:06;95375.03;;;4.08
24201;BMP280;2801;50.972;7.856;2023-01-16T04:24:35;95361.78;;;4.08
24201;BMP280;2801;50.972;7.856;2023-01-16T04:27:02;95371.16;;;4.17
24201;BMP280;2801;50.972;7.856;2023-01-16T04:29:29;95367.84;;;4.20
24201;BMP280;2801;50.972;7.856;2023-01-16T04:31:55;95352.63;;;4.17
24201;BMP280;2801;50.972;7.856;2023-01-16T04:34:22;95359.53;;;4.22
24201;BMP280;2801;50.972;7.856;2023-01-16T04:36:49;95347.84;;;4.23
24201;BMP280;2801;50.972;7.856;2023-01-16T04:39:16;95337.25;;;4.23
24201;BMP280;2801;50.972;7.856;2023-01-16T04:41:43;95332.50;;;4.28
24201;BMP280;2801;50.972;7.856;2023-01-16T04:44:13;95308.84;;;4.23
24201;BMP280;2801;50.972;7.856;2023-01-16T04:46:40;95309.63;;;4.24
24201;BMP280;2801;50.972;7.856;2023-01-16T04:49:07;95304.00;;;4.25
24201;BMP280;2801;50.972;7.856;2023-01-16T04:51:36;95295.47;;;4.32
24201;BMP280;2801;50.972;7.856;2023-01-16T04:54:05;95284.41;;;4.30
24201;BMP280;2801;50.972;7.856;2023-01-16T04:56:33;95278.22;;;4.26
24201;BMP280;2801;50.972;7.856;2023-01-16T04:59:00;95267.53;;;4.22
24201;BMP280;2801;50.972;7.856;2023-01-16T05:01:26;95251.53;;;4.19
24201;BMP280;2801;50.972;7.856;2023-01-16T05:03:53;95257.03;;;4.26
24201;BMP280;2801;50.972;7.856;2023-01-16T05:06:20;95249.06;;;4.26
24201;BMP280;2801;50.972;7.856;2023-01-16T05:08:47;95231.50;;;4.33
24201;BMP280;2801;50.972;7.856;2023-01-16T05:11:14;95226.31;;;4.25
24201;BMP280;2801;50.972;7.856;2023-01-16T05:13:40;95225.66;;;4.28
24201;BMP280;2801;50.972;7.856;2023-01-16T05:16:07;95219.91;;;4.26
24201;BMP280;2801;50.972;7.856;2023-01-16T05:18:34;95210.75;;;4.23
24201;BMP280;2801;50.972;7.856;2023-01-16T05:21:01;95213.06;;;4.25
24201;BMP280;2801;50.972;7.856;2023-01-16T05:23:28;95202.78;;;4.23
24201;BMP280;2801;50.972;7.856;2023-01-16T05:25:55;95189.88;;;4.22
24201;BMP280;2801;50.972;7.856;2023-01-16T05:28:22;95176.53;;;4.18
24201;BMP280;2801;50.972;7.856;2023-01-16T05:30:49;95165.59;;;4.20
24201;BMP280;2801;50.972;7.856;2023-01-16T05:33:16;95166.00;;;4.22
24201;BMP280;2801;50.972;7.856;2023-01-16T05:35:46;95154.72;;;4.25
24201;BMP280;2801;50.972;7.856;2023-01-16T05:38:14;95146.69;;;4.21
24201;BMP280;2801;50.972;7.856;2023-01-16T05:40:41;95135.31;;;4.21
24201;BMP280;2801;50.972;7.856;2023-01-16T05:43:09;95129.66;;;4.22
24201;BMP280;2801;50.972;7.856;2023-01-16T05:45:36;95128.88;;;4.22
24201;BMP280;2801;50.972;7.856;2023-01-16T05:48:04;95120.50;;;4.20
24201;BMP280;2801;50.972;7.856;2023-01-16T05:50:31;95102.47;;;4.25
24201;BMP280;2801;50.972;7.856;2023-01-16T05:52:58;95105.22;;;4.29
24201;BMP280;2801;50.972;7.856;2023-01-16T05:55:26;95091.72;;;4.34
24201;BMP280;2801;50.972;7.856;2023-01-16T05:57:53;95098.56;;;4.35
24201;BMP280;2801;50.972;7.856;2023-01-16T06:00:20;95096.66;;;4.35
24201;BMP280;2801;50.972;7.856;2023-01-16T06:02:48;95078.47;;;4.34
24201;BMP280;2801;50.972;7.856;2023-01-16T06:05:15;95082.72;;;4.38
24201;BMP280;2801;50.972;7.856;2023-01-16T06:07:42;95074.38;;;4.36
24201;BMP280;2801;50.972;7.856;2023-01-16T06:10:10;95063.25;;;4.31
24201;BMP280;2801;50.972;7.856;2023-01-16T06:12:37;95066.41;;;4.36
24201;BMP280;2801;50.972;7.856;2023-01-16T06:15:05;95054.94;;;4.32
24201;BMP280;2801;50.972;7.856;2023-01-16T06:17:31;95053.03;;;4.33
24201;BMP280;2801;50.972;7.856;2023-01-16T06:19:58;95049.47;;;4.25
24201;BMP280;2801;50.972;7.856;2023-01-16T06:22:25;95047.16;;;4.24
24201;BMP280;2801;50.972;7.856;2023-01-16T06:24:52;95038.06;;;4.25
24201;BMP280;2801;50.972;7.856;2023-01-16T06:27:19;95033.22;;;4.27
24201;BMP280;2801;50.972;7.856;2023-01-16T06:29:46;95038.41;;;4.23
24201;BMP280;2801;50.972;7.856;2023-01-16T06:32:13;95033.88;;;4.24
24201;BMP280;2801;50.972;7.856;2023-01-16T06:34:40;95026.34;;;4.26
24201;BMP280;2801;50.972;7.856;2023-01-16T06:37:06;95030.56;;;4.27
24201;BMP280;2801;50.972;7.856;2023-01-16T06:39:33;95016.25;;;4.31
24201;BMP280;2801;50.972;7.856;2023-01-16T06:42:00;95014.38;;;4.32
24201;BMP280;2801;50.972;7.856;2023-01-16T06:44:33;95012.25;;;4.37
24201;BMP280;2801;50.972;7.856;2023-01-16T06:47:01;95001.81;;;4.44
24201;BMP280;2801;50.972;7.856;2023-01-16T06:49:28;94994.47;;;4.38
24201;BMP280;2801;50.972;7.856;2023-01-16T06:51:55;94988.56;;;4.44
24201;BMP280;2801;50.972;7.856;2023-01-16T06:54:22;94985.91;;;4.44
24201;BMP280;2801;50.972;7.856;2023-01-16T06:56:49;94983.31;;;4.48
24201;BMP280;2801;50.972;7.856;2023-01-16T06:59:15;94979.47;;;4.45
24201;BMP280;2801;50.972;7.856;2023-01-16T07:01:42;94963.91;;;4.44
24201;BMP280;2801;50.972;7.856;2023-01-16T07:04:09;94960.59;;;4.47
24201;BMP280;2801;50.972;7.856;2023-01-16T07:06:36;94955.09;;;4.55
24201;BMP280;2801;50.972;7.856;2023-01-16T07:09:05;94951.59;;;4.51
24201;BMP280;2801;50.972;7.856;2023-01-16T07:11:32;94930.88;;;4.57
24201;BMP280;2801;50.972;7.856;2023-01-16T07:13:59;94923.78;;;4.45
24201;BMP280;2801;50.972;7.856;2023-01-16T07:16:49;94917.72;;;4.45
24201;BMP280;2801;50.972;7.856;2023-01-16T07:19:34;94917.03;;;4.48
24201;BMP280;2801;50.972;7.856;2023-01-16T07:22:20;94903.25;;;4.42
24201;BMP280;2801;50.972;7.856;2023-01-16T07:25:18;94912.91;;;4.50
24201;BMP280;2801;50.972;7.856;2023-01-16T07:27:48;94907.69;;;4.54
24201;BMP280;2801;50.972;7.856;2023-01-16T07:30:20;94904.59;;;4.52
24201;BMP280;2801;50.972;7.856;2023-01-16T07:32:48;94889.53;;;4.56
24201;BMP280;2801;50.972;7.856;2023-01-16T07:35:15;94892.97;;;4.56
24201;BMP280;2801;50.972;7.856;2023-01-16T07:37:42;94869.88;;;4.57
24201;BMP280;2801;50.972;7.856;2023-01-16T07:40:10;94861.69;;;4.46
24201;BMP280;2801;50.972;7.856;2023-01-16T07:42:37;94870.22;;;4.55
24201;BMP280;2801;50.972;7.856;2023-01-16T07:45:04;94861.97;;;4.60
24201;BMP280;2801;50.972;7.856;2023-01-16T07:47:36;94865.06;;;4.62
24201;BMP280;2801;50.972;7.856;2023-01-16T07:50:03;94855.22;;;4.63
24201;BMP280;2801;50.972;7.856;2023-01-16T07:52:31;94833.94;;;4.59
24201;BMP280;2801;50.972;7.856;2023-01-16T07:54:57;94835.47;;;4.60
24201;BMP280;2801;50.972;7.856;2023-01-16T07:57:24;94820.38;;;4.64
24201;BMP280;2801;50.972;7.856;2023-01-16T07:59:52;94815.50;;;4.66
24201;BMP280;2801;50.972;7.856;2023-01-16T08:02:20;94786.88;;;4.56
24201;BMP280;2801;50.972;7.856;2023-01-16T08:04:47;94780.19;;;4.62
24201;BMP280;2801;50.972;7.856;2023-01-16T08:07:13;94782.13;;;4.65
24201;BMP280;2801;50.972;7.856;2023-01-16T08:09:40;94782.19;;;4.69
24201;BMP280;2801;50.972;7.856;2023-01-16T08:12:07;94761.31;;;4.67
24201;BMP280;2801;50.972;7.856;2023-01-16T08:14:34;94764.31;;;4.66
24201;BMP280;2801;50.972;7.856;2023-01-16T08:17:01;94771.59;;;4.69
24201;BMP280;2801;50.972;7.856;2023-01-16T08:19:28;94761.81;;;4.54
24201;BMP280;2801;50.972;7.856;2023-01-16T08:21:55;94768.84;;;4.65
24201;BMP280;2801;50.972;7.856;2023-01-16T08:24:23;94751.84;;;4.66
24201;BMP280;2801;50.972;7.856;2023-01-16T08:26:52;94745.06;;;4.50
24201;BMP280;2801;50.972;7.856;2023-01-16T08:29:19;94744.38;;;4.53
24201;BMP280;2801;50.972;7.856;2023-01-16T08:31:46;94748.13;;;4.52
24201;BMP280;2801;50.972;7.856;2023-01-16T08:34:13;94744.38;;;4.53
24201;BMP280;2801;50.972;7.856;2023-01-16T08:36:40;94733.69;;;4.49
24201;BMP280;2801;50.972;7.856;2023-01-16T08:39:11;94731.31;;;4.44
24201;BMP280;2801;50.972;7.856;2023-01-16T08:41:38;94729.16;;;4.31
24201;BMP280;2801;50.972;7.856;2023-01-16T08:44:23;94722.09;;;4.19
24201;BMP280;2801;50.972;7.856;2023-01-16T08:47:18;94732.06;;;4.07
24201;BMP280;2801;50.972;7.856;2023-01-16T08:50:10;94716.97;;;3.91
24201;BMP280;2801;50.972;7.856;2023-01-16T08:52:56;94714.88;;;3.81
24201;BMP280;2801;50.972;7.856;2023-01-16T08:55:22;94704.03;;;3.71
24201;BMP280;2801;50.972;7.856;2023-01-16T08:57:49;94694.91;;;3.68
24201;BMP280;2801;50.972;7.856;2023-01-16T09:00:16;94694.66;;;3.58
24201;BMP280;2801;50.972;7.856;2023-01-16T09:02:46;94681.72;;;3.53
24201;BMP280;2801;50.972;7.856;2023-01-16T09:05:13;94694.06;;;3.64
24201;BMP280;2801;50.972;7.856;2023-01-16T09:07:40;94686.09;;;3.64
24201;BMP280;2801;50.972;7.856;2023-01-16T09:10:08;94684.56;;;3.63
24201;BMP280;2801;50.972;7.856;2023-01-16T09:12:35;94669.81;;;3.62
24201;BMP280;2801;50.972;7.856;2023-01-16T09:15:20;94661.03;;;3.58
24201;BMP280;2801;50.972;7.856;2023-01-16T09:17:47;94660.75;;;3.63
24201;BMP280;2801;50.972;7.856;2023-01-16T09:20:14;94666.44;;;3.65
24201;BMP280;2801;50.972;7.856;2023-01-16T09:22:41;94658.78;;;3.60
24201;BMP280;2801;50.972;7.856;2023-01-16T09:25:09;94649.31;;;3.59
24201;BMP280;2801;50.972;7.856;2023-01-16T09:27:36;94649.47;;;3.66
24201;BMP280;2801;50.972;7.856;2023-01-16T09:30:04;94635.44;;;3.66
24201;BMP280;2801;50.972;7.856;2023-01-16T09:32:31;94623.81;;;3.70
24201;BMP280;2801;50.972;7.856;2023-01-16T09:35:00;94622.69;;;3.71
24201;BMP280;2801;50.972;7.856;2023-01-16T09:37:27;94619.28;;;3.71
24201;BMP280;2801;50.972;7.856;2023-01-16T09:39:53;94620.34;;;3.66
24201;BMP280;2801;50.972;7.856;2023-01-16T09:45:29;94606.75;;;3.68
24201;BMP280;2801;50.972;7.856;2023-01-16T09:48:11;94601.63;;;3.59
24201;BMP280;2801;50.972;7.856;2023-01-16T09:50:46;94604.44;;;3.66
24201;BMP280;2801;50.972;7.856;2023-01-16T09:53:28;94597.69;;;3.69
24201;BMP280;2801;50.972;7.856;2023-01-16T09:56:21;94598.50;;;3.73
24201;BMP280;2801;50.972;7.856;2023-01-16T10:02:00;94584.25;;;3.77
24201;BMP280;2801;50.972;7.856;2023-01-16T10:04:30;94577.47;;;3.80
24201;BMP280;2801;50.972;7.856;2023-01-16T10:16:38;94566.69;;;3.69
24201;BMP280;2801;50.972;7.856;2023-01-16T10:25:20;94539.97;;;3.59
24201;BMP280;2801;50.972;7.856;2023-01-16T10:28:18;94529.03;;;3.60
24201;BMP280;2801;50.972;7.856;2023-01-16T10:31:18;94532.84;;;3.44
24201;BMP280;2801;50.972;7.856;2023-01-16T10:34:03;94528.97;;;3.38
24201;BMP280;2801;50.972;7.856;2023-01-16T10:36:39;94526.47;;;3.45
24201;BMP280;2801;50.972;7.856;2023-01-16T10:39:13;94516.72;;;3.49
24201;BMP280;2801;50.972;7.856;2023-01-16T10:41:49;94511.91;;;3.54
24201;BMP280;2801;50.972;7.856;2023-01-16T10:44:39;94495.72;;;3.59
24201;BMP280;2801;50.972;7.856;2023-01-16T10:47:30;94497.19;;;3.57
24201;BMP280;2801;50.972;7.856;2023-01-16T10:50:21;94493.13;;;3.63
24201;BMP280;2801;50.972;7.856;2023-01-16T10:53:07;94489.66;;;3.59
24201;BMP280;2801;50.972;7.856;2023-01-16T10:55:38;94482.88;;;3.61
24201;BMP280;2801;50.972;7.856;2023-01-16T10:58:28;94473.56;;;3.67
24201;BMP280;2801;50.972;7.856;2023-01-16T11:01:17;94468.91;;;3.61
24201;BMP280;2801;50.972;7.856;2023-01-16T11:03:53;94472.44;;;3.68
24201;BMP280;2801;50.972;7.856;2023-01-16T11:06:28;94457.44;;;3.76
24201;BMP280;2801;50.972;7.856;2023-01-16T11:09:02;94460.63;;;3.85
24201;BMP280;2801;50.972;7.856;2023-01-16T11:11:33;94445.16;;;3.87
24201;BMP280;2801;50.972;7.856;2023-01-16T11:14:26;94440.34;;;3.92
24201;BMP280;2801;50.972;7.856;2023-01-16T11:17:33;94442.16;;;3.88
24201;BMP280;2801;50.972;7.856;2023-01-16T11:20:33;94432.59;;;3.84
24201;BMP280;2801;50.972;7.856;2023-01-16T11:23:17;94423.22;;;3.90
24201;BMP280;2801;50.972;7.856;2023-01-16T11:25:47;94421.00;;;3.92
24201;BMP280;2801;50.972;7.856;2023-01-16T11:28:34;94415.75;;;3.95
24201;BMP280;2801;50.972;7.856;2023-01-16T11:31:20;94400.63;;;3.96
24201;BMP280;2801;50.972;7.856;2023-01-16T11:33:53;94402.47;;;3.92
24201;BMP280;2801;50.972;7.856;2023-01-16T11:36:25;94388.41;;;3.88
24201;BMP280;2801;50.972;7.856;2023-01-16T11:38:53;94385.88;;;3.95
24201;BMP280;2801;50.972;7.856;2023-01-16T11:41:31;94388.22;;;4.00
24201;BMP280;2801;50.972;7.856;2023-01-16T11:44:33;94377.91;;;3.95
24201;BMP280;2801;50.972;7.856;2023-01-16T11:47:26;94350.34;;;3.99
24201;BMP280;2801;50.972;7.856;2023-01-16T11:49:54;94354.88;;;3.99
24201;BMP280;2801;50.972;7.856;2023-01-16T11:52:22;94344.34;;;4.03
24201;BMP280;2801;50.972;7.856;2023-01-16T11:55:01;94345.81;;;4.00
24201;BMP280;2801;50.972;7.856;2023-01-16T11:57:52;94339.34;;;3.97
24201;BMP280;2801;50.972;7.856;2023-01-16T12:23:36;94286.91;;;4.10
24201;BMP280;2801;50.972;7.856;2023-01-16T12:26:30;94278.75;;;4.22
24201;BMP280;2801;50.972;7.856;2023-01-16T12:29:11;94268.50;;;4.21
24201;BMP280;2801;50.972;7.856;2023-01-16T12:32:10;94244.28;;;4.22
24201;BMP280;2801;50.972;7.856;2023-01-16T12:46:39;94215.50;;;4.21
24201;BMP280;2801;50.972;7.856;2023-01-16T12:49:38;94220.78;;;4.21
24201;BMP280;2801;50.972;7.856;2023-01-16T12:58:42;94205.16;;;4.12
24201;BMP280;2801;50.972;7.856;2023-01-16T13:01:32;94187.72;;;4.08
24201;BMP280;2801;50.972;7.856;2023-01-16T13:06:44;94173.06;;;4.17
24201;BMP280;2801;50.972;7.856;2023-01-16T13:12:52;94156.06;;;4.22
24201;BMP280;2801;50.972;7.856;2023-01-16T13:15:46;94148.53;;;4.27
24201;BMP280;2801;50.972;7.856;2023-01-16T13:18:26;94129.16;;;4.20
24201;BMP280;2801;50.972;7.856;2023-01-16T13:20:59;94134.09;;;4.21
24201;BMP280;2801;50.972;7.856;2023-01-16T13:23:39;94113.47;;;4.04
24201;BMP280;2801;50.972;7.856;2023-01-16T13:26:15;94106.28;;;4.05
24201;BMP280;2801;50.972;7.856;2023-01-16T13:28:53;94099.47;;;4.04
24201;BMP280;2801;50.972;7.856;2023-01-16T13:31:34;94094.97;;;4.08
24201;BMP280;2801;50.972;7.856;2023-01-16T13:34:22;94092.63;;;4.03
24201;BMP280;2801;50.972;7.856;2023-01-16T13:43:12;94077.56;;;4.10
24201;BMP280;2801;50.972;7.856;2023-01-16T13:46:03;94068.91;;;4.13
24201;BMP280;2801;50.972;7.856;2023-01-16T13:48:35;94067.06;;;4.17
24201;BMP280;2801;50.972;7.856;2023-01-16T13:51:15;94079.94;;;4.19
24201;BMP280;2801;50.972;7.856;2023-01-16T13:53:52;94057.53;;;4.09
24201;BMP280;2801;50.972;7.856;2023-01-16T13:56:23;94064.41;;;4.17
24201;BMP280;2801;50.972;7.856;2023-01-16T13:59:05;94045.84;;;4.17
24201;BMP280;2801;50.972;7.856;2023-01-16T14:01:55;94035.72;;;4.26
24201;BMP280;2801;50.972;7.856;2023-01-16T14:12:41;94030.19;;;4.45
24201;BMP280;2801;50.972;7.856;2023-01-16T14:15:20;94013.88;;;4.40
24201;BMP280;2801;50.972;7.856;2023-01-16T14:18:20;94009.34;;;4.40
24201;BMP280;2801;50.972;7.856;2023-01-16T14:23:25;94002.56;;;4.46
24201;BMP280;2801;50.972;7.856;2023-01-16T14:26:19;94003.75;;;4.52
24201;BMP280;2801;50.972;7.856;2023-01-16T14:28:49;93996.13;;;4.47
24201;BMP280;2801;50.972;7.856;2023-01-16T14:31:29;93998.81;;;4.54
24201;BMP280;2801;50.972;7.856;2023-01-16T14:34:02;93982.91;;;4.51
24201;BMP280;2801;50.972;7.856;2023-01-16T14:36:33;93995.78;;;4.49
24201;BMP280;2801;50.972;7.856;2023-01-16T14:39:01;93988.91;;;4.44
24201;BMP280;2801;50.972;7.856;2023-01-16T14:41:31;93987.78;;;4.45
24201;BMP280;2801;50.972;7.856;2023-01-16T14:44:20;93976.41;;;4.45
24201;BMP280;2801;50.972;7.856;2023-01-16T14:47:23;93987.00;;;4.45
24201;BMP280;2801;50.972;7.856;2023-01-16T14:50:17;93982.81;;;4.40
24201;BMP280;2801;50.972;7.856;2023-01-16T14:53:18;93972.94;;;4.34
24201;BMP280;2801;50.972;7.856;2023-01-16T14:56:29;93968.72;;;4.29
24201;BMP280;2801;50.972;7.856;2023-01-16T14:59:06;93952.47;;;4.34
24201;BMP280;2801;50.972;7.856;2023-01-16T15:01:50;93958.19;;;4.40
24201;BMP280;2801;50.972;7.856;2023-01-16T15:04:55;93938.81;;;4.29
24201;BMP280;2801;50.972;7.856;2023-01-16T15:07:44;93945.59;;;4.26
24201;BMP280;2801;50.972;7.856;2023-01-16T15:10:15;93936.56;;;4.34
24201;BMP280;2801;50.972;7.856;2023-01-16T15:12:44;93929.03;;;4.36
24201;BMP280;2801;50.972;7.856;2023-01-16T15:15:31;93924.88;;;4.39
24201;BMP280;2801;50.972;7.856;2023-01-16T15:18:00;93909.31;;;4.34
24201;BMP280;2801;50.972;7.856;2023-01-16T15:20:46;93907.81;;;4.40
24201;BMP280;2801;50.972;7.856;2023-01-16T15:23:37;93908.97;;;4.42
24201;BMP280;2801;50.972;7.856;2023-01-16T15:28:58;93911.66;;;4.46
24201;BMP280;2801;50.972;7.856;2023-01-16T15:31:46;93896.09;;;4.41
24201;BMP280;2801;50.972;7.856;2023-01-16T15:36:49;93880.13;;;4.30
24201;BMP280;2801;50.972;7.856;2023-01-16T15:39:23;93890.66;;;4.20
24201;BMP280;2801;50.972;7.856;2023-01-16T15:42:07;93897.09;;;4.22
24201;BMP280;2801;50.972;7.856;2023-01-16T15:44:53;93887.59;;;4.14
24201;BMP280;2801;50.972;7.856;2023-01-16T15:48:28;93878.84;;;4.10
24201;BMP280;2801;50.972;7.856;2023-01-16T15:51:08;93876.22;;;4.10
24201;BMP280;2801;50.972;7.856;2023-01-16T15:53:39;93880.00;;;4.09
24201;BMP280;2801;50.972;7.856;2023-01-16T15:56:29;93872.00;;;4.06
24201;BMP280;2801;50.972;7.856;2023-01-16T15:59:00;93867.84;;;4.05
24201;BMP280;2801;50.972;7.856;2023-01-16T16:01:33;93860.28;;;4.07
24201;BMP280;2801;50.972;7.856;2023-01-16T16:04:02;93861.34;;;3.98
24201;BMP280;2801;50.972;7.856;2023-01-16T16:06:31;93855.25;;;3.94
24201;BMP280;2801;50.972;7.856;2023-01-16T16:09:04;93840.44;;;3.86
24201;BMP280;2801;50.972;7.856;2023-01-16T16:11:32;93847.31;;;3.91
24201;BMP280;2801;50.972;7.856;2023-01-16T16:14:36;93846.53;;;3.90
24201;BMP280;2801;50.972;7.856;2023-01-16T16:17:34;93843.81;;;3.83
24201;BMP280;2801;50.972;7.856;2023-01-16T16:20:40;93836.59;;;3.77
24201;BMP280;2801;50.972;7.856;2023-01-16T16:23:20;93828.59;;;3.70
24201;BMP280;2801;50.972;7.856;2023-01-16T16:25:54;93826.00;;;3.73
24201;BMP280;2801;50.972;7.856;2023-01-16T16:31:22;93819.06;;;3.58
24201;BMP280;2801;50.972;7.856;2023-01-16T16:34:20;93816.94;;;3.34
24201;BMP280;2801;50.972;7.856;2023-01-16T16:36:55;93807.84;;;3.32
24201;BMP280;2801;50.972;7.856;2023-01-16T16:39:41;93814.91;;;3.21
24201;BMP280;2801;50.972;7.856;2023-01-16T16:45:11;93807.69;;;3.18
24201;BMP280;2801;50.972;7.856;2023-01-16T16:47:44;93815.25;;;3.16
24201;BMP280;2801;50.972;7.856;2023-01-16T16:50:33;93809.59;;;3.17
24201;BMP280;2801;50.972;7.856;2023-01-16T16:53:25;93805.41;;;3.16
24201;BMP280;2801;50.972;7.856;2023-01-16T16:56:06;93804.19;;;3.07
24201;BMP280;2801;50.972;7.856;2023-01-16T16:58:43;93796.75;;;3.16
24201;BMP280;2801;50.972;7.856;2023-01-16T17:01:13;93798.94;;;3.10
24201;BMP280;2801;50.972;7.856;2023-01-16T17:03:42;93795.88;;;3.05
24201;BMP280;2801;50.972;7.856;2023-01-16T17:06:22;93800.38;;;3.01
24201;BMP280;2801;50.972;7.856;2023-01-16T17:08:50;93795.47;;;3.03
24201;BMP280;2801;50.972;7.856;2023-01-16T17:11:17;93796.56;;;2.98
24201;BMP280;2801;50.972;7.856;2023-01-16T17:13:43;93796.56;;;2.98
24201;BMP280;2801;50.972;7.856;2023-01-16T17:16:21;93792.03;;;2.99
24201;BMP280;2801;50.972;7.856;2023-01-16T17:19:17;93787.88;;;3.01
24201;BMP280;2801;50.972;7.856;2023-01-16T17:21:45;93787.16;;;3.04
24201;BMP280;2801;50.972;7.856;2023-01-16T17:24:20;93784.97;;;3.10
24201;BMP280;2801;50.972;7.856;2023-01-16T17:26:47;93771.00;;;3.09
24201;BMP280;2801;50.972;7.856;2023-01-16T17:29:14;93776.72;;;3.15
24201;BMP280;2801;50.972;7.856;2023-01-16T17:31:44;93774.81;;;3.15
24201;BMP280;2801;50.972;7.856;2023-01-16T17:34:18;93777.88;;;3.17